Time;durP1;ratioP1;P1;durP2;ratioP2;P2;SDS_P1;SDS_P2;PMS_P1;PMS_P2;Temp;Humidity;BMP_temperature;BMP_pressure;BME280_temperature;BME280_humidity;BME280_pressure;Samples;Min_cycle;Max_cycle;Signal;HPM_P1;HPM_P2
2023/01/17 00:01:49;;;;;;;71.20;5.80;;;;;;;-148.24;100.00;61531.34;4988895;28;20875;-54
2023/01/17 00:09:51;;;;;;;89.85;6.50;;;;;;;-148.24;100.00;61531.34;4985776;28;20064;-55
2023/01/17 00:12:20;;;;;;;49.42;4.63;;;;;;;-148.24;100.00;61531.34;4989872;28;20053;-56
2023/01/17 00:14:47;;;;;;;79.28;5.68;;;;;;;-148.24;100.00;61531.34;4991092;28;20100;-55
2023/01/17 00:17:12;;;;;;;72.18;5.38;;;;;;;-148.24;100.00;61531.34;4988106;28;20057;-55
2023/01/17 01:35:00;;;;;;;43.58;4.20;;;;;;;-148.24;100.00;61531.34;4993695;28;20123;-54
2023/01/17 01:37:25;;;;;;;36.00;3.40;;;;;;;-148.24;100.00;61531.34;4992846;28;20140;-54
2023/01/17 01:39:51;;;;;;;61.70;5.10;;;;;;;-148.24;100.00;61531.34;4995124;28;20029;-54
2023/01/17 01:42:16;;;;;;;47.15;4.13;;;;;;;-148.24;100.00;61531.34;4992796;28;20038;-53
2023/01/17 01:44:50;;;;;;;44.67;4.53;;;;;;;-148.24;100.00;61531.34;4993704;28;20022;-53
2023/01/17 01:47:25;;;;;;;57.70;5.03;;;;;;;-148.24;100.00;61531.34;4993045;28;20132;-55
2023/01/17 01:49:51;;;;;;;64.85;4.97;;;;;;;-148.24;100.00;61531.34;4992828;28;20030;-55
2023/01/17 01:52:19;;;;;;;50.00;4.68;;;;;;;-148.24;100.00;61531.34;4994331;28;20030;-56
2023/01/17 01:54:59;;;;;;;50.30;4.47;;;;;;;-148.24;100.00;61531.34;4993499;28;20514;-53
2023/01/17 01:57:28;;;;;;;49.22;4.18;;;;;;;-148.24;100.00;61531.34;4992366;28;20137;-55
2023/01/17 02:00:00;;;;;;;57.42;4.75;;;;;;;-148.24;100.00;61531.34;4991065;28;20034;-54
2023/01/17 02:02:29;;;;;;;46.53;4.00;;;;;;;-148.24;100.00;61531.34;4994459;28;20042;-53
2023/01/17 02:04:55;;;;;;;41.55;3.78;;;;;;;-148.24;100.00;61531.34;4992875;28;20056;-54
2023/01/17 02:07:32;;;;;;;67.70;5.60;;;;;;;-148.24;100.00;61531.34;4990093;28;20050;-53
2023/01/17 02:09:57;;;;;;;38.67;3.72;;;;;;;-148.24;100.00;61531.34;4993185;28;20029;-55
2023/01/17 02:12:24;;;;;;;67.38;5.20;;;;;;;-148.24;100.00;61531.34;4991024;28;20030;-56
2023/01/17 02:14:49;;;;;;;47.00;4.15;;;;;;;-148.24;100.00;61531.34;4990877;28;20025;-57
2023/01/17 02:17:22;;;;;;;45.22;4.22;;;;;;;-148.24;100.00;61531.34;4991347;28;20638;-55
2023/01/17 02:20:14;;;;;;;69.53;5.65;;;;;;;-148.24;100.00;61531.34;4991313;28;20026;-54
2023/01/17 02:22:48;;;;;;;51.93;4.33;;;;;;;-148.24;100.00;61531.34;4991059;28;20046;-55
2023/01/17 02:25:47;;;;;;;57.65;4.57;;;;;;;-148.24;100.00;61531.34;4991827;28;20168;-57
2023/01/17 02:28:37;;;;;;;52.50;4.60;;;;;;;-148.24;100.00;61531.34;4994809;28;20034;-56
2023/01/17 02:31:24;;;;;;;47.08;4.43;;;;;;;-148.24;100.00;61531.34;4990964;28;20109;-54
2023/01/17 02:33:52;;;;;;;51.78;4.53;;;;;;;-148.24;100.00;61531.34;4993877;28;20019;-55
2023/01/17 02:36:40;;;;;;;53.33;4.60;;;;;;;-148.24;100.00;61531.34;4992156;28;20140;-55
2023/01/17 02:39:16;;;;;;;48.03;4.80;;;;;;;-148.24;100.00;61531.34;4992763;28;20140;-53
2023/01/17 02:41:45;;;;;;;64.90;5.72;;;;;;;-148.24;100.00;61531.34;4989558;28;20038;-55
2023/01/17 02:44:17;;;;;;;47.75;4.28;;;;;;;-148.24;100.00;61531.34;4993106;28;20030;-56
2023/01/17 02:46:45;;;;;;;74.00;6.30;;;;;;;-148.24;100.00;61531.34;4987952;28;20143;-53
2023/01/17 02:49:11;;;;;;;53.05;4.63;;;;;;;-148.24;100.00;61531.34;4992226;28;20101;-55
2023/01/17 02:51:42;;;;;;;56.13;4.70;;;;;;;-148.24;100.00;61531.34;4989608;28;20049;-53
2023/01/17 02:54:17;;;;;;;56.17;4.53;;;;;;;-148.24;100.00;61531.34;4992579;28;20432;-54
2023/01/17 02:56:52;;;;;;;57.30;4.65;;;;;;;-148.24;100.00;61531.34;4990306;28;20169;-54
2023/01/17 02:59:26;;;;;;;51.45;4.78;;;;;;;-148.24;100.00;61531.34;4992752;28;20071;-55
2023/01/17 03:01:57;;;;;;;57.75;5.05;;;;;;;-148.24;100.00;61531.34;4988232;28;20122;-54
2023/01/17 03:04:33;;;;;;;43.53;4.30;;;;;;;-148.24;100.00;61531.34;4992577;28;20047;-53
2023/01/17 03:07:07;;;;;;;55.80;4.82;;;;;;;-148.24;100.00;61531.34;4990052;28;20480;-54
2023/01/17 03:09:33;;;;;;;46.40;4.35;;;;;;;-148.24;100.00;61531.34;4992262;28;20049;-54
2023/01/17 03:11:59;;;;;;;62.03;5.20;;;;;;;-148.24;100.00;61531.34;4990565;28;20648;-57
2023/01/17 03:14:24;;;;;;;51.55;4.20;;;;;;;-148.24;100.00;61531.34;4993049;28;20026;-54
2023/01/17 03:16:50;;;;;;;44.35;3.90;;;;;;;-148.24;100.00;61531.34;4992172;28;20038;-56
2023/01/17 03:19:15;;;;;;;57.78;4.85;;;;;;;-148.24;100.00;61531.34;4991186;28;20038;-55
2023/01/17 03:21:40;;;;;;;50.70;4.20;;;;;;;-148.24;100.00;61531.34;4991804;28;20042;-54
2023/01/17 03:24:06;;;;;;;62.13;5.55;;;;;;;-148.24;100.00;61531.34;4990953;28;20105;-55
2023/01/17 03:26:31;;;;;;;51.80;4.50;;;;;;;-148.24;100.00;61531.34;4990832;28;20658;-56
2023/01/17 03:28:56;;;;;;;41.47;3.92;;;;;;;-148.24;100.00;61531.34;4992288;28;20494;-56
2023/01/17 03:31:22;;;;;;;60.00;5.22;;;;;;;-148.24;100.00;61531.34;4990502;28;20030;-55
2023/01/17 03:33:48;;;;;;;52.72;4.95;;;;;;;-148.24;100.00;61531.34;4990210;28;20034;-56
2023/01/17 03:36:13;;;;;;;57.92;5.15;;;;;;;-148.24;100.00;61531.34;4991664;28;20041;-54
2023/01/17 03:38:38;;;;;;;50.65;4.32;;;;;;;-148.24;100.00;61531.34;4991783;28;20026;-54
2023/01/17 03:41:04;;;;;;;51.80;4.70;;;;;;;-148.24;100.00;61531.34;4990063;28;20461;-53
2023/01/17 03:43:30;;;;;;;53.80;5.00;;;;;;;-148.24;100.00;61531.34;4974710;28;20042;-55
2023/01/17 03:46:03;;;;;;;51.75;4.72;;;;;;;-148.24;100.00;61531.34;4988172;28;20063;-54
2023/01/17 03:48:29;;;;;;;55.92;5.13;;;;;;;-148.24;100.00;61531.34;4993378;28;20071;-56
2023/01/17 03:50:54;;;;;;;41.90;4.68;;;;;;;-148.24;100.00;61531.34;4992494;28;20034;-56
2023/01/17 03:53:19;;;;;;;48.38;4.60;;;;;;;-148.24;100.00;61531.34;4995605;28;20487;-54
2023/01/17 03:55:45;;;;;;;67.13;5.80;;;;;;;-148.24;100.00;61531.34;4993689;28;20038;-55
2023/01/17 03:58:11;;;;;;;55.97;4.50;;;;;;;-148.24;100.00;61531.34;4994979;28;20104;-56
2023/01/17 04:00:36;;;;;;;74.55;5.88;;;;;;;-148.24;100.00;61531.34;4995398;28;20502;-54
2023/01/17 04:03:02;;;;;;;45.70;4.50;;;;;;;-148.24;100.00;61531.34;4995824;28;20030;-57
2023/01/17 04:05:27;;;;;;;37.47;3.78;;;;;;;-148.24;100.00;61531.34;4995415;28;20458;-55
2023/01/17 04:07:52;;;;;;;48.65;4.65;;;;;;;-148.24;100.00;61531.34;4995654;28;20076;-54
2023/01/17 04:10:18;;;;;;;56.08;4.93;;;;;;;-148.24;100.00;61531.34;4996110;28;20141;-54
2023/01/17 04:12:43;;;;;;;55.38;5.47;;;;;;;-148.24;100.00;61531.34;4992989;28;20030;-56
2023/01/17 04:15:09;;;;;;;55.55;5.00;;;;;;;-148.24;100.00;61531.34;4994758;28;20026;-55
2023/01/17 04:17:34;;;;;;;47.53;4.78;;;;;;;-148.24;100.00;61531.34;4994956;28;20057;-55
2023/01/17 04:20:00;;;;;;;54.33;5.05;;;;;;;-148.24;100.00;61531.34;4995317;28;20029;-54
2023/01/17 04:22:25;;;;;;;49.30;4.93;;;;;;;-148.24;100.00;61531.34;4992606;28;20511;-56
2023/01/17 04:24:50;;;;;;;67.50;5.75;;;;;;;-148.24;100.00;61531.34;4995202;28;20026;-56
2023/01/17 04:27:16;;;;;;;64.03;5.90;;;;;;;-148.24;100.00;61531.34;4991401;28;20038;-54
2023/01/17 04:29:41;;;;;;;67.68;5.90;;;;;;;-148.24;100.00;61531.34;4994776;28;20423;-54
2023/01/17 04:32:07;;;;;;;57.72;5.20;;;;;;;-148.24;100.00;61531.34;4994123;28;20050;-54
2023/01/17 04:34:32;;;;;;;50.28;4.60;;;;;;;-148.24;100.00;61531.34;4995093;28;20400;-53
2023/01/17 04:36:57;;;;;;;60.10;5.72;;;;;;;-148.24;100.00;61531.34;4993362;28;20157;-54
2023/01/17 04:39:23;;;;;;;51.00;4.80;;;;;;;-148.24;100.00;61531.34;4995101;28;20030;-54
2023/01/17 04:41:48;;;;;;;57.95;4.75;;;;;;;-148.24;100.00;61531.34;4993842;28;20399;-56
2023/01/17 04:44:13;;;;;;;64.35;5.63;;;;;;;-148.24;100.00;61531.34;4993198;28;20303;-53
2023/01/17 04:46:39;;;;;;;54.40;5.65;;;;;;;-148.24;100.00;61531.34;4993466;28;20146;-53
2023/01/17 04:49:04;;;;;;;66.20;5.70;;;;;;;-148.24;100.00;61531.34;4996267;28;20084;-53
2023/01/17 04:51:29;;;;;;;51.83;5.00;;;;;;;-148.24;100.00;61531.34;4994019;28;20046;-54
2023/01/17 04:53:55;;;;;;;56.03;4.53;;;;;;;-148.24;100.00;61531.34;4993076;28;20041;-53
2023/01/17 04:56:20;;;;;;;76.00;6.55;;;;;;;-148.24;100.00;61531.34;4994247;28;20117;-55
2023/01/17 04:58:46;;;;;;;56.95;5.13;;;;;;;-148.24;100.00;61531.34;4992076;28;20041;-55
2023/01/17 05:01:12;;;;;;;65.65;6.03;;;;;;;-148.24;100.00;61531.34;4995261;28;20045;-56
2023/01/17 05:03:37;;;;;;;50.83;5.28;;;;;;;-148.24;100.00;61531.34;4993051;28;20419;-56
2023/01/17 05:06:03;;;;;;;46.00;4.75;;;;;;;-148.24;100.00;61531.34;4994452;28;20057;-54
2023/01/17 05:08:28;;;;;;;69.72;5.45;;;;;;;-148.24;100.00;61531.34;4992675;28;20064;-54
2023/01/17 05:10:55;;;;;;;50.85;5.03;;;;;;;-148.24;100.00;61531.34;4993601;28;20092;-55
2023/01/17 05:13:20;;;;;;;63.38;5.43;;;;;;;-148.24;100.00;61531.34;4993627;28;20336;-55
2023/01/17 05:15:46;;;;;;;55.10;5.55;;;;;;;-148.24;100.00;61531.34;4994210;28;20623;-55
2023/01/17 05:18:14;;;;;;;57.78;5.35;;;;;;;-148.24;100.00;61531.34;4994289;28;20127;-54
2023/01/17 05:20:39;;;;;;;62.90;5.57;;;;;;;-148.24;100.00;61531.34;4993036;28;20516;-53
2023/01/17 05:23:04;;;;;;;50.17;5.00;;;;;;;-148.24;100.00;61531.34;4993775;28;20030;-53
2023/01/17 05:25:31;;;;;;;66.07;5.85;;;;;;;-148.24;100.00;61531.34;4994055;28;20029;-54
2023/01/17 05:27:58;;;;;;;50.00;5.15;;;;;;;-148.24;100.00;61531.34;4993215;28;20030;-55
2023/01/17 05:30:26;;;;;;;59.17;5.50;;;;;;;-148.24;100.00;61531.34;4991070;28;20914;-55
2023/01/17 05:32:53;;;;;;;55.90;5.20;;;;;;;-148.24;100.00;61531.34;4992018;28;20061;-54
2023/01/17 05:35:21;;;;;;;52.38;4.70;;;;;;;-148.24;100.00;61531.34;4992992;28;20053;-54
2023/01/17 05:37:48;;;;;;;80.63;6.63;;;;;;;-148.24;100.00;61531.34;4992261;28;21122;-56
2023/01/17 05:40:23;;;;;;;56.75;5.68;;;;;;;-148.24;100.00;61531.34;4991770;28;20084;-54
2023/01/17 05:42:50;;;;;;;76.20;6.53;;;;;;;-148.24;100.00;61531.34;4992286;28;20419;-57
2023/01/17 05:45:16;;;;;;;59.67;5.53;;;;;;;-148.24;100.00;61531.34;4991806;28;20781;-55
2023/01/17 05:47:43;;;;;;;63.53;5.82;;;;;;;-148.24;100.00;61531.34;4991185;28;20112;-56
2023/01/17 05:50:14;;;;;;;56.83;5.13;;;;;;;-148.24;100.00;61531.34;4992505;28;20026;-54
2023/01/17 05:52:40;;;;;;;50.25;5.03;;;;;;;-148.24;100.00;61531.34;4992480;28;20153;-54
2023/01/17 05:55:07;;;;;;;69.80;5.97;;;;;;;-148.24;100.00;61531.34;4993055;28;20064;-54
2023/01/17 05:57:33;;;;;;;53.28;5.50;;;;;;;-148.24;100.00;61531.34;4992108;28;20027;-56
2023/01/17 05:59:58;;;;;;;72.00;6.43;;;;;;;-148.24;100.00;61531.34;4992211;28;20022;-54
2023/01/17 06:02:24;;;;;;;47.25;5.03;;;;;;;-148.24;100.00;61531.34;4992030;28;20070;-56
2023/01/17 06:04:49;;;;;;;61.00;5.75;;;;;;;-148.24;100.00;61531.34;4992608;28;20037;-55
2023/01/17 06:07:14;;;;;;;63.67;6.43;;;;;;;-148.24;100.00;61531.34;4992589;28;20042;-57
2023/01/17 06:09:40;;;;;;;79.50;7.10;;;;;;;-148.24;100.00;61531.34;4994141;28;20084;-55
2023/01/17 06:12:05;;;;;;;70.90;6.75;;;;;;;-148.24;100.00;61531.34;4992660;28;20434;-56
2023/01/17 06:14:30;;;;;;;56.30;6.13;;;;;;;-148.24;100.00;61531.34;4993310;28;20022;-58
2023/01/17 06:16:56;;;;;;;54.40;6.15;;;;;;;-148.24;100.00;61531.34;4991862;28;20050;-58
2023/01/17 06:19:21;;;;;;;74.03;7.57;;;;;;;-148.24;100.00;61531.34;4991691;28;20444;-55
2023/01/17 06:21:47;;;;;;;64.05;7.20;;;;;;;-148.24;100.00;61531.34;4993511;28;20603;-54
2023/01/17 06:24:12;;;;;;;75.47;7.88;;;;;;;-148.24;100.00;61531.34;4993317;28;20029;-54
2023/01/17 06:26:37;;;;;;;52.70;6.30;;;;;;;-148.24;100.00;61531.34;4992454;28;20092;-57
2023/01/17 06:29:03;;;;;;;49.97;5.65;;;;;;;-148.24;100.00;61531.34;4994863;28;20026;-55
2023/01/17 06:31:28;;;;;;;77.65;7.65;;;;;;;-148.24;100.00;61531.34;4990415;28;20034;-55
2023/01/17 06:33:54;;;;;;;58.90;6.57;;;;;;;-148.24;100.00;61531.34;4989846;28;20068;-58
2023/01/17 06:36:19;;;;;;;65.57;7.38;;;;;;;-148.24;100.00;61531.34;4991897;28;20041;-55
2023/01/17 06:38:50;;;;;;;57.80;7.13;;;;;;;-148.24;100.00;61531.34;4993352;28;20125;-54
2023/01/17 06:41:15;;;;;;;57.65;6.55;;;;;;;-148.24;100.00;61531.34;4990905;28;20069;-56
2023/01/17 06:43:40;;;;;;;59.33;6.70;;;;;;;-148.24;100.00;61531.34;4994341;28;20107;-55
2023/01/17 06:46:06;;;;;;;59.97;7.15;;;;;;;-148.24;100.00;61531.34;4992353;28;20069;-54
2023/01/17 06:48:31;;;;;;;72.72;7.20;;;;;;;-148.24;100.00;61531.34;4991797;28;20057;-56
2023/01/17 06:50:57;;;;;;;64.30;6.85;;;;;;;-148.24;100.00;61531.34;4990800;28;20058;-54
2023/01/17 06:53:22;;;;;;;59.92;6.68;;;;;;;-148.24;100.00;61531.34;4989139;28;20128;-54
2023/01/17 06:55:47;;;;;;;83.55;7.97;;;;;;;-148.24;100.00;61531.34;4989753;28;20037;-55
2023/01/17 06:58:13;;;;;;;47.53;5.53;;;;;;;-148.24;100.00;61531.34;4992721;28;20029;-53
2023/01/17 07:00:38;;;;;;;82.30;7.95;;;;;;;-148.24;100.00;61531.34;4991529;28;20030;-54
2023/01/17 07:03:03;;;;;;;58.55;6.20;;;;;;;-148.24;100.00;61531.34;4989866;28;20030;-55
2023/01/17 07:05:29;;;;;;;61.90;6.03;;;;;;;-148.24;100.00;61531.34;4990106;28;20037;-54
2023/01/17 07:07:54;;;;;;;63.70;6.75;;;;;;;-148.24;100.00;61531.34;4991419;28;20816;-54
2023/01/17 07:10:20;;;;;;;64.68;7.07;;;;;;;-148.24;100.00;61531.34;4990359;28;20171;-54
2023/01/17 07:12:45;;;;;;;64.18;6.43;;;;;;;-148.24;100.00;61531.34;4990928;28;20120;-53
2023/01/17 07:15:11;;;;;;;60.05;6.82;;;;;;;-148.24;100.00;61531.34;4991903;28;20503;-56
2023/01/17 07:17:37;;;;;;;60.50;6.97;;;;;;;-148.24;100.00;61531.34;4991989;28;20030;-55
2023/01/17 07:20:03;;;;;;;75.90;8.75;;;;;;;-148.24;100.00;61531.34;4993838;28;20110;-54
2023/01/17 07:22:28;;;;;;;71.75;7.85;;;;;;;-148.24;100.00;61531.34;4990043;28;20074;-54
2023/01/17 07:24:57;;;;;;;72.25;7.80;;;;;;;-148.24;100.00;61531.34;4991325;28;20033;-53
2023/01/17 07:27:24;;;;;;;62.03;7.47;;;;;;;-148.24;100.00;61531.34;4995022;28;20037;-53
2023/01/17 07:29:49;;;;;;;80.25;8.55;;;;;;;-148.24;100.00;61531.34;4989975;28;20069;-56
2023/01/17 07:32:14;;;;;;;78.80;9.00;;;;;;;-148.24;100.00;61531.34;4990164;28;20030;-53
2023/01/17 07:34:40;;;;;;;72.72;9.27;;;;;;;-148.24;100.00;61531.34;4992230;28;20084;-54
2023/01/17 07:37:05;;;;;;;82.88;7.70;;;;;;;-148.24;100.00;61531.34;4991148;28;20035;-54
2023/01/17 07:39:30;;;;;;;68.82;7.88;;;;;;;-148.24;100.00;61531.34;4992387;28;20030;-54
2023/01/17 07:41:56;;;;;;;65.35;7.13;;;;;;;-148.24;100.00;61531.34;4991953;28;20042;-57
2023/01/17 07:44:21;;;;;;;65.72;7.03;;;;;;;-148.24;100.00;61531.34;4990495;28;20042;-57
2023/01/17 07:46:46;;;;;;;74.20;7.47;;;;;;;-148.24;100.00;61531.34;4989392;28;20049;-55
2023/01/17 07:49:13;;;;;;;88.45;9.55;;;;;;;-148.24;100.00;61531.34;4989729;28;20428;-55
2023/01/17 07:51:39;;;;;;;61.67;8.00;;;;;;;-148.24;100.00;61531.34;4990766;28;20037;-56
2023/01/17 07:54:04;;;;;;;56.40;8.13;;;;;;;-148.24;100.00;61531.34;4991855;28;20606;-54
2023/01/17 07:56:29;;;;;;;69.55;8.73;;;;;;;-148.24;100.00;61531.34;4991197;28;20039;-53
2023/01/17 07:58:55;;;;;;;71.20;9.60;;;;;;;-148.24;100.00;61531.34;4989945;28;20128;-53
2023/01/17 08:01:20;;;;;;;81.22;9.93;;;;;;;-148.24;100.00;61531.34;4991695;28;20045;-54
2023/01/17 08:03:49;;;;;;;68.75;9.35;;;;;;;-148.24;100.00;61531.34;4991013;28;20026;-53
2023/01/17 08:06:28;;;;;;;69.35;8.65;;;;;;;-148.24;100.00;61531.34;4991260;28;20053;-57
2023/01/17 08:08:57;;;;;;;65.35;7.65;;;;;;;-148.24;100.00;61531.34;4992095;28;20535;-54
2023/01/17 08:11:23;;;;;;;59.25;7.15;;;;;;;-148.24;100.00;61531.34;4990673;28;20045;-53
2023/01/17 08:13:48;;;;;;;63.75;8.18;;;;;;;-148.24;100.00;61531.34;4993055;28;20565;-55
2023/01/17 08:16:14;;;;;;;57.72;6.80;;;;;;;-148.24;100.00;61531.34;4992218;28;20042;-53
2023/01/17 08:18:40;;;;;;;79.82;10.18;;;;;;;-148.24;100.00;61531.34;4991649;28;20134;-55
2023/01/17 08:21:13;;;;;;;58.97;8.63;;;;;;;-148.24;100.00;61531.34;4991007;28;20054;-53
2023/01/17 08:23:38;;;;;;;86.97;8.63;;;;;;;-148.24;100.00;61531.34;4992640;28;20022;-55
2023/01/17 08:26:04;;;;;;;55.45;7.57;;;;;;;-148.24;100.00;61531.34;4990527;28;20057;-56
2023/01/17 08:28:29;;;;;;;56.78;7.10;;;;;;;-148.24;100.00;61531.34;4992481;28;20025;-54
2023/01/17 08:30:55;;;;;;;51.90;4.95;;;;;;;-148.24;100.00;61531.34;4988793;28;20066;-54
2023/01/17 08:33:20;;;;;;;65.20;7.00;;;;;;;-148.24;100.00;61531.34;4973591;28;20040;-53
2023/01/17 08:35:52;;;;;;;83.18;7.35;;;;;;;-148.24;100.00;61531.34;4992015;28;20041;-55
2023/01/17 08:38:18;;;;;;;;;;;;;;;-148.24;100.00;61531.34;4991891;28;20030;-53
2023/01/17 08:40:43;;;;;;;73.90;7.60;;;;;;;-148.24;100.00;61531.34;4992626;28;19921;-55
2023/01/17 08:43:09;;;;;;;64.70;7.93;;;;;;;-148.24;100.00;61531.34;4993921;28;20079;-54
2023/01/17 08:45:34;;;;;;;47.15;5.68;;;;;;;-148.24;100.00;61531.34;4993849;28;20036;-54
2023/01/17 08:47:59;;;;;;;75.45;8.30;;;;;;;-148.24;100.00;61531.34;4995685;28;20107;-54
2023/01/17 08:50:25;;;;;;;60.42;8.38;;;;;;;-148.24;100.00;61531.34;4994254;28;20399;-54
2023/01/17 08:52:57;;;;;;;73.38;7.88;;;;;;;-148.24;100.00;61531.34;4994524;28;20045;-54
2023/01/17 08:55:23;;;;;;;58.35;6.93;;;;;;;-148.24;100.00;61531.34;4993657;28;21586;-54
2023/01/17 08:57:48;;;;;;;60.40;6.65;;;;;;;-148.24;100.00;61531.34;4995606;28;20500;-54
2023/01/17 09:00:14;;;;;;;54.28;6.40;;;;;;;-148.24;100.00;61531.34;4993406;28;20068;-56
2023/01/17 09:02:39;;;;;;;59.72;6.63;;;;;;;-148.24;100.00;61531.34;4992921;28;20058;-55
2023/01/17 09:05:05;;;;;;;65.07;6.45;;;;;;;-148.24;100.00;61531.34;4993495;28;20583;-54
2023/01/17 09:07:30;;;;;;;59.90;6.15;;;;;;;-148.24;100.00;61531.34;4995108;28;20049;-54
2023/01/17 09:09:56;;;;;;;61.38;5.47;;;;;;;-148.24;100.00;61531.34;4993622;28;20415;-54
2023/01/17 09:12:21;;;;;;;56.10;5.53;;;;;;;-148.24;100.00;61531.34;4994154;28;20065;-55
2023/01/17 09:14:47;;;;;;;50.33;5.53;;;;;;;-148.24;100.00;61531.34;4994891;28;20037;-54
2023/01/17 09:17:13;;;;;;;70.80;6.72;;;;;;;-148.24;100.00;61531.34;4993340;28;20044;-54
2023/01/17 09:19:43;;;;;;;70.68;5.95;;;;;;;-148.24;100.00;61531.34;4993721;28;20030;-55
2023/01/17 09:22:12;;;;;;;61.08;5.65;;;;;;;-148.24;100.00;61531.34;4992139;28;20107;-54
2023/01/17 09:24:37;;;;;;;51.92;4.93;;;;;;;-148.24;100.00;61531.34;4993759;28;20089;-56
2023/01/17 09:27:03;;;;;;;50.65;5.25;;;;;;;-148.24;100.00;61531.34;4993567;28;20034;-57
2023/01/17 09:29:29;;;;;;;67.32;5.63;;;;;;;-148.24;100.00;61531.34;4994525;28;20502;-57
2023/01/17 09:31:55;;;;;;;50.47;5.10;;;;;;;-148.24;100.00;61531.34;4992965;28;20034;-56
2023/01/17 09:34:22;;;;;;;55.33;5.05;;;;;;;-148.24;100.00;61531.34;4992684;28;20022;-55
2023/01/17 09:36:47;;;;;;;57.38;5.15;;;;;;;-148.24;100.00;61531.34;4991581;28;20034;-56
2023/01/17 09:39:14;;;;;;;49.08;4.82;;;;;;;-148.24;100.00;61531.34;4992124;28;20268;-54
2023/01/17 09:41:54;;;;;;;61.70;6.03;;;;;;;-148.24;100.00;61531.34;4992389;28;20042;-56
2023/01/17 09:44:38;;;;;;;48.55;5.03;;;;;;;-148.24;100.00;61531.34;4993366;28;20045;-55
2023/01/17 09:47:14;;;;;;;56.65;5.65;;;;;;;-148.24;100.00;61531.34;4992127;28;20085;-56
2023/01/17 09:49:42;;;;;;;88.90;7.03;;;;;;;-148.24;100.00;61531.34;4976467;28;20047;-54
2023/01/17 09:52:13;;;;;;;63.72;5.47;;;;;;;-148.24;100.00;61531.34;4993836;28;21105;-54
2023/01/17 09:54:41;;;;;;;58.13;5.60;;;;;;;-148.24;100.00;61531.34;4990315;28;20110;-55
2023/01/17 09:57:34;;;;;;;51.33;5.10;;;;;;;-148.24;100.00;61531.34;4990370;28;20926;-54
2023/01/17 10:00:19;;;;;;;58.63;5.20;;;;;;;-148.24;100.00;61531.34;4993034;28;20073;-57
2023/01/17 10:03:19;;;;;;;58.10;5.15;;;;;;;-148.24;100.00;61531.34;4992070;28;20038;-56
2023/01/17 10:06:18;;;;;;;65.05;5.82;;;;;;;-148.24;100.00;61531.34;4991119;28;20472;-57
2023/01/17 10:08:59;;;;;;;55.45;5.00;;;;;;;-148.24;100.00;61531.34;4991245;28;20517;-56
2023/01/17 10:11:55;;;;;;;48.30;5.35;;;;;;;-148.24;100.00;61531.34;4990206;28;20113;-54
2023/01/17 10:14:32;;;;;;;51.92;5.28;;;;;;;-148.24;100.00;61531.34;4992613;28;20022;-55
2023/01/17 10:17:26;;;;;;;73.30;6.00;;;;;;;-148.24;100.00;61531.34;4992319;28;20046;-54
2023/01/17 10:20:09;;;;;;;57.42;5.43;;;;;;;-148.24;100.00;61531.34;4994001;28;20037;-54
2023/01/17 10:23:16;;;;;;;58.22;5.55;;;;;;;-148.24;100.00;61531.34;4990822;28;20049;-54
2023/01/17 10:25:56;;;;;;;56.85;5.65;;;;;;;-148.24;100.00;61531.34;4977066;28;20042;-54
2023/01/17 10:28:39;;;;;;;57.20;5.78;;;;;;;-148.24;100.00;61531.34;4992817;28;20105;-58
2023/01/17 10:31:12;;;;;;;71.93;6.85;;;;;;;-148.24;100.00;61531.34;4990999;28;20041;-56
2023/01/17 10:33:42;;;;;;;50.10;5.53;;;;;;;-148.24;100.00;61531.34;4992723;28;20149;-54
2023/01/17 10:36:17;;;;;;;59.97;5.90;;;;;;;-148.24;100.00;61531.34;4990100;28;20046;-53
2023/01/17 10:38:50;;;;;;;55.53;5.03;;;;;;;-148.24;100.00;61531.34;4992594;28;20057;-53
2023/01/17 10:41:36;;;;;;;67.53;6.05;;;;;;;-148.24;100.00;61531.34;4971063;28;20120;-55
2023/01/17 10:44:19;;;;;;;54.47;5.47;;;;;;;-148.24;100.00;61531.34;4992180;28;20033;-53
2023/01/17 10:46:57;;;;;;;52.88;5.07;;;;;;;-148.24;100.00;61531.34;4991867;28;20045;-55
2023/01/17 10:49:25;;;;;;;74.47;6.03;;;;;;;-148.24;100.00;61531.34;4993238;28;20053;-54
2023/01/17 10:51:59;;;;;;;55.33;5.53;;;;;;;-148.24;100.00;61531.34;4991945;28;20038;-56
2023/01/17 10:54:49;;;;;;;72.15;6.53;;;;;;;-148.24;100.00;61531.34;4993110;28;20032;-55
2023/01/17 10:57:20;;;;;;;46.60;4.72;;;;;;;-148.24;100.00;61531.34;4991108;28;20041;-54
2023/01/17 10:59:45;;;;;;;67.07;6.00;;;;;;;-148.24;100.00;61531.34;4990993;28;20546;-54
2023/01/17 11:02:22;;;;;;;54.08;5.15;;;;;;;-148.24;100.00;61531.34;4989785;28;20193;-56
2023/01/17 11:04:53;;;;;;;45.80;4.50;;;;;;;-148.24;100.00;61531.34;4991450;28;20029;-54
2023/01/17 11:07:26;;;;;;;55.25;5.00;;;;;;;-148.24;100.00;61531.34;4991396;28;20042;-56
2023/01/17 11:09:56;;;;;;;63.15;5.63;;;;;;;-148.24;100.00;61531.34;4992529;28;20743;-54
2023/01/17 11:12:27;;;;;;;53.78;5.40;;;;;;;-148.24;100.00;61531.34;4990540;28;20052;-54
2023/01/17 11:15:01;;;;;;;52.75;4.88;;;;;;;-148.24;100.00;61531.34;4990742;28;20067;-56
2023/01/17 11:17:28;;;;;;;52.05;4.93;;;;;;;-148.24;100.00;61531.34;4988320;28;20042;-53
2023/01/17 11:20:06;;;;;;;56.42;5.90;;;;;;;-148.24;100.00;61531.34;4991017;28;20382;-54
2023/01/17 11:22:32;;;;;;;58.90;5.25;;;;;;;-148.24;100.00;61531.34;4991482;28;20096;-54
2023/01/17 11:24:58;;;;;;;48.92;4.90;;;;;;;-148.24;100.00;61531.34;4989958;28;20526;-53
2023/01/17 11:27:36;;;;;;;54.35;4.47;;;;;;;-148.24;100.00;61531.34;4990747;28;20038;-55
2023/01/17 11:30:14;;;;;;;59.42;5.15;;;;;;;-148.24;100.00;61531.34;4991477;28;20014;-54
2023/01/17 11:32:52;;;;;;;56.13;5.05;;;;;;;-148.24;100.00;61531.34;4992437;28;20042;-56
2023/01/17 11:35:21;;;;;;;48.08;4.65;;;;;;;-148.24;100.00;61531.34;4993216;28;20057;-54
2023/01/17 11:37:49;;;;;;;68.97;5.82;;;;;;;-148.24;100.00;61531.34;4993077;28;20034;-53
2023/01/17 11:40:14;;;;;;;45.20;5.18;;;;;;;-148.24;100.00;61531.34;4989716;28;20105;-53
2023/01/17 11:42:40;;;;;;;43.85;4.45;;;;;;;-148.24;100.00;61531.34;4991751;28;20457;-55
2023/01/17 11:45:26;;;;;;;54.58;5.25;;;;;;;-148.24;100.00;61531.34;4992022;28;20088;-54
2023/01/17 11:48:06;;;;;;;55.67;5.30;;;;;;;-148.24;100.00;61531.34;4990324;28;20026;-54
2023/01/17 11:50:32;;;;;;;56.78;5.07;;;;;;;-148.24;100.00;61531.34;4989936;28;20071;-55
2023/01/17 11:53:24;;;;;;;63.58;5.93;;;;;;;-148.24;100.00;61531.34;4989655;28;20105;-57
2023/01/17 11:56:09;;;;;;;41.40;4.90;;;;;;;-148.24;100.00;61531.34;4987913;28;20153;-54
2023/01/17 11:58:39;;;;;;;45.75;4.32;;;;;;;-148.24;100.00;61531.34;4991421;28;20042;-53
2023/01/17 12:01:19;;;;;;;66.10;6.10;;;;;;;-148.24;100.00;61531.34;4990694;28;20042;-53
2023/01/17 12:04:06;;;;;;;48.25;4.55;;;;;;;-148.24;100.00;61531.34;4990769;28;20069;-55
2023/01/17 12:06:51;;;;;;;53.83;5.13;;;;;;;-148.24;100.00;61531.34;4990388;28;20475;-54
2023/01/17 12:09:34;;;;;;;59.65;5.80;;;;;;;-148.24;100.00;61531.34;4990113;28;20030;-56
2023/01/17 12:15:15;;;;;;;51.13;5.00;;;;;;;-148.24;100.00;61531.34;4994095;28;20594;-55
2023/01/17 12:18:08;;;;;;;48.35;4.70;;;;;;;-148.24;100.00;61531.34;4995360;28;20034;-55
2023/01/17 12:20:49;;;;;;;45.67;4.68;;;;;;;-148.24;100.00;61531.34;4957919;28;20042;-54
2023/01/17 12:23:46;;;;;;;57.45;5.57;;;;;;;-148.24;100.00;61531.34;4994289;28;20251;-54
2023/01/17 12:26:41;;;;;;;48.47;5.32;;;;;;;-148.24;100.00;61531.34;4992000;28;20053;-55
2023/01/17 12:29:40;;;;;;;52.85;5.10;;;;;;;-148.24;100.00;61531.34;4995388;28;20089;-54
2023/01/17 12:32:05;;;;;;;57.25;5.03;;;;;;;-148.24;100.00;61531.34;4994565;28;20170;-53
2023/01/17 12:34:48;;;;;;;69.00;5.65;;;;;;;-148.24;100.00;61531.34;4994439;28;20140;-53
2023/01/17 12:37:25;;;;;;;54.40;4.85;;;;;;;-148.24;100.00;61531.34;4991268;28;20125;-54
2023/01/17 12:40:04;;;;;;;63.67;5.60;;;;;;;-148.24;100.00;61531.34;4994079;28;20057;-54